sensor_id;sensor_type;location;lat;lon;timestamp;temperature;humidity
23137;DHT22;11737;50.558;7.258;2023-04-25T00:01:24;10.00;99.90
23137;DHT22;11737;50.558;7.258;2023-04-25T00:03:53;10.10;99.90
23137;DHT22;11737;50.558;7.258;2023-04-25T00:06:20;10.20;99.90
23137;DHT22;11737;50.558;7.258;2023-04-25T00:08:50;10.30;99.90
23137;DHT22;11737;50.558;7.258;2023-04-25T00:11:17;10.30;99.90
23137;DHT22;11737;50.558;7.258;2023-04-25T00:13:45;10.30;99.90
23137;DHT22;11737;50.558;7.258;2023-04-25T00:16:13;10.20;99.90
23137;DHT22;11737;50.558;7.258;2023-04-25T00:18:42;10.30;99.90
23137;DHT22;11737;50.558;7.258;2023-04-25T00:21:09;10.20;99.90
23137;DHT22;11737;50.558;7.258;2023-04-25T00:23:37;10.00;99.90
23137;DHT22;11737;50.558;7.258;2023-04-25T00:26:05;9.90;99.90
23137;DHT22;11737;50.558;7.258;2023-04-25T00:28:32;9.80;99.90
23137;DHT22;11737;50.558;7.258;2023-04-25T00:31:00;9.70;99.90
23137;DHT22;11737;50.558;7.258;2023-04-25T00:33:27;9.60;99.90
23137;DHT22;11737;50.558;7.258;2023-04-25T00:35:55;9.40;99.90
23137;DHT22;11737;50.558;7.258;2023-04-25T00:38:23;9.30;99.90
23137;DHT22;11737;50.558;7.258;2023-04-25T00:40:50;9.10;99.90
23137;DHT22;11737;50.558;7.258;2023-04-25T00:43:19;9.00;99.90
23137;DHT22;11737;50.558;7.258;2023-04-25T00:45:47;8.90;99.90
23137;DHT22;11737;50.558;7.258;2023-04-25T00:48:17;8.90;99.90
23137;DHT22;11737;50.558;7.258;2023-04-25T00:50:50;8.80;99.90
23137;DHT22;11737;50.558;7.258;2023-04-25T00:53:16;8.80;99.90
23137;DHT22;11737;50.558;7.258;2023-04-25T00:55:43;8.90;99.90
23137;DHT22;11737;50.558;7.258;2023-04-25T00:58:11;8.80;99.90
23137;DHT22;11737;50.558;7.258;2023-04-25T01:00:39;8.80;99.90
23137;DHT22;11737;50.558;7.258;2023-04-25T01:03:07;8.80;99.90
23137;DHT22;11737;50.558;7.258;2023-04-25T02:00:14;7.30;99.90
23137;DHT22;11737;50.558;7.258;2023-04-25T02:02:42;7.20;99.90
23137;DHT22;11737;50.558;7.258;2023-04-25T02:05:10;7.10;99.90
23137;DHT22;11737;50.558;7.258;2023-04-25T02:07:37;7.00;99.90
23137;DHT22;11737;50.558;7.258;2023-04-25T02:10:05;6.80;99.90
23137;DHT22;11737;50.558;7.258;2023-04-25T02:12:33;6.70;99.90
23137;DHT22;11737;50.558;7.258;2023-04-25T02:15:00;6.70;99.90
23137;DHT22;11737;50.558;7.258;2023-04-25T02:17:28;6.60;99.90
23137;DHT22;11737;50.558;7.258;2023-04-25T02:19:57;6.60;99.90
23137;DHT22;11737;50.558;7.258;2023-04-25T02:22:25;6.80;99.90
23137;DHT22;11737;50.558;7.258;2023-04-25T02:24:55;6.90;99.90
23137;DHT22;11737;50.558;7.258;2023-04-25T02:27:22;6.90;99.90
23137;DHT22;11737;50.558;7.258;2023-04-25T02:29:49;6.90;99.90
23137;DHT22;11737;50.558;7.258;2023-04-25T02:32:17;6.80;99.90
23137;DHT22;11737;50.558;7.258;2023-04-25T02:34:44;6.70;99.90
23137;DHT22;11737;50.558;7.258;2023-04-25T02:37:13;6.60;99.90
23137;DHT22;11737;50.558;7.258;2023-04-25T02:39:40;6.50;99.90
23137;DHT22;11737;50.558;7.258;2023-04-25T02:42:08;6.50;99.90
23137;DHT22;11737;50.558;7.258;2023-04-25T02:44:35;6.60;99.90
23137;DHT22;11737;50.558;7.258;2023-04-25T02:47:03;6.60;99.90
23137;DHT22;11737;50.558;7.258;2023-04-25T02:49:30;6.70;99.90
23137;DHT22;11737;50.558;7.258;2023-04-25T02:51:58;6.90;99.90
23137;DHT22;11737;50.558;7.258;2023-04-25T02:54:25;7.00;99.90
23137;DHT22;11737;50.558;7.258;2023-04-25T02:56:53;7.20;99.90
23137;DHT22;11737;50.558;7.258;2023-04-25T02:59:20;7.40;99.90
23137;DHT22;11737;50.558;7.258;2023-04-25T03:01:48;7.50;99.90
23137;DHT22;11737;50.558;7.258;2023-04-25T03:04:15;7.60;99.90
23137;DHT22;11737;50.558;7.258;2023-04-25T03:06:45;7.70;99.90
23137;DHT22;11737;50.558;7.258;2023-04-25T03:09:12;7.80;99.90
23137;DHT22;11737;50.558;7.258;2023-04-25T03:11:40;7.90;99.90
23137;DHT22;11737;50.558;7.258;2023-04-25T03:14:07;8.00;99.90
23137;DHT22;11737;50.558;7.258;2023-04-25T03:16:35;8.20;99.90
23137;DHT22;11737;50.558;7.258;2023-04-25T03:19:03;8.30;99.90
23137;DHT22;11737;50.558;7.258;2023-04-25T03:21:32;8.40;99.90
23137;DHT22;11737;50.558;7.258;2023-04-25T03:24:01;8.50;99.90
23137;DHT22;11737;50.558;7.258;2023-04-25T03:26:29;8.60;99.90
23137;DHT22;11737;50.558;7.258;2023-04-25T03:28:56;8.70;99.90
23137;DHT22;11737;50.558;7.258;2023-04-25T03:31:24;8.80;99.90
23137;DHT22;11737;50.558;7.258;2023-04-25T03:33:52;8.90;99.90
23137;DHT22;11737;50.558;7.258;2023-04-25T03:36:19;9.00;99.90
23137;DHT22;11737;50.558;7.258;2023-04-25T03:38:47;9.10;99.90
23137;DHT22;11737;50.558;7.258;2023-04-25T03:41:14;9.10;99.90
23137;DHT22;11737;50.558;7.258;2023-04-25T03:43:42;9.10;99.90
23137;DHT22;11737;50.558;7.258;2023-04-25T03:46:09;9.10;99.90
23137;DHT22;11737;50.558;7.258;2023-04-25T03:48:37;9.20;99.90
23137;DHT22;11737;50.558;7.258;2023-04-25T03:51:04;9.20;99.90
23137;DHT22;11737;50.558;7.258;2023-04-25T03:53:32;9.10;99.90
23137;DHT22;11737;50.558;7.258;2023-04-25T03:55:59;9.20;99.90
23137;DHT22;11737;50.558;7.258;2023-04-25T03:58:27;9.20;99.90
23137;DHT22;11737;50.558;7.258;2023-04-25T04:00:55;9.10;99.90
23137;DHT22;11737;50.558;7.258;2023-04-25T04:03:22;9.10;99.90
23137;DHT22;11737;50.558;7.258;2023-04-25T04:05:49;9.00;99.90
23137;DHT22;11737;50.558;7.258;2023-04-25T04:08:17;9.00;99.90
23137;DHT22;11737;50.558;7.258;2023-04-25T04:10:44;9.10;99.90
23137;DHT22;11737;50.558;7.258;2023-04-25T04:13:12;9.10;99.90
23137;DHT22;11737;50.558;7.258;2023-04-25T04:15:39;9.20;99.90
23137;DHT22;11737;50.558;7.258;2023-04-25T04:18:07;9.20;99.90
23137;DHT22;11737;50.558;7.258;2023-04-25T04:20:34;9.20;99.90
23137;DHT22;11737;50.558;7.258;2023-04-25T04:23:02;9.30;99.90
23137;DHT22;11737;50.558;7.258;2023-04-25T04:25:29;9.30;99.90
23137;DHT22;11737;50.558;7.258;2023-04-25T04:27:57;9.30;99.90
23137;DHT22;11737;50.558;7.258;2023-04-25T04:30:25;9.40;99.90
23137;DHT22;11737;50.558;7.258;2023-04-25T04:32:55;9.30;99.90
23137;DHT22;11737;50.558;7.258;2023-04-25T04:35:23;9.20;99.90
23137;DHT22;11737;50.558;7.258;2023-04-25T04:37:51;9.20;99.90
23137;DHT22;11737;50.558;7.258;2023-04-25T04:40:19;9.20;99.90
23137;DHT22;11737;50.558;7.258;2023-04-25T04:42:47;9.20;99.90
23137;DHT22;11737;50.558;7.258;2023-04-25T04:45:17;9.20;99.90
23137;DHT22;11737;50.558;7.258;2023-04-25T04:47:45;9.30;99.90
23137;DHT22;11737;50.558;7.258;2023-04-25T04:50:12;9.40;99.90
23137;DHT22;11737;50.558;7.258;2023-04-25T04:52:41;9.50;99.90
23137;DHT22;11737;50.558;7.258;2023-04-25T04:55:09;9.50;99.90
23137;DHT22;11737;50.558;7.258;2023-04-25T04:57:36;9.60;99.90
23137;DHT22;11737;50.558;7.258;2023-04-25T05:00:05;9.60;99.90
23137;DHT22;11737;50.558;7.258;2023-04-25T05:02:35;9.60;99.90
23137;DHT22;11737;50.558;7.258;2023-04-25T05:05:02;9.70;99.90
23137;DHT22;11737;50.558;7.258;2023-04-25T05:07:30;9.70;99.90
23137;DHT22;11737;50.558;7.258;2023-04-25T05:09:57;9.70;99.90
23137;DHT22;11737;50.558;7.258;2023-04-25T05:12:25;9.70;99.90
23137;DHT22;11737;50.558;7.258;2023-04-25T05:14:52;9.80;99.90
23137;DHT22;11737;50.558;7.258;2023-04-25T05:17:19;9.90;99.90
23137;DHT22;11737;50.558;7.258;2023-04-25T05:19:47;10.00;99.90
23137;DHT22;11737;50.558;7.258;2023-04-25T05:22:15;10.10;99.90
23137;DHT22;11737;50.558;7.258;2023-04-25T05:24:42;10.20;99.90
23137;DHT22;11737;50.558;7.258;2023-04-25T05:27:10;10.30;99.90
23137;DHT22;11737;50.558;7.258;2023-04-25T05:29:37;10.30;99.90
23137;DHT22;11737;50.558;7.258;2023-04-25T05:32:05;10.40;99.90
23137;DHT22;11737;50.558;7.258;2023-04-25T05:34:34;10.40;99.90
23137;DHT22;11737;50.558;7.258;2023-04-25T05:37:01;10.50;99.90
23137;DHT22;11737;50.558;7.258;2023-04-25T05:39:29;10.60;99.90
23137;DHT22;11737;50.558;7.258;2023-04-25T05:41:56;10.60;99.90
23137;DHT22;11737;50.558;7.258;2023-04-25T05:44:24;10.60;99.90
23137;DHT22;11737;50.558;7.258;2023-04-25T05:46:51;10.60;99.90
23137;DHT22;11737;50.558;7.258;2023-04-25T05:49:20;10.70;99.90
23137;DHT22;11737;50.558;7.258;2023-04-25T05:51:48;10.60;99.90
23137;DHT22;11737;50.558;7.258;2023-04-25T05:54:15;10.60;99.90
23137;DHT22;11737;50.558;7.258;2023-04-25T05:56:43;10.70;99.90
23137;DHT22;11737;50.558;7.258;2023-04-25T05:59:10;10.70;99.90
23137;DHT22;11737;50.558;7.258;2023-04-25T06:01:38;10.80;99.90
23137;DHT22;11737;50.558;7.258;2023-04-25T06:04:06;10.80;99.90
23137;DHT22;11737;50.558;7.258;2023-04-25T06:06:34;10.80;99.90
23137;DHT22;11737;50.558;7.258;2023-04-25T06:09:02;10.80;99.90
23137;DHT22;11737;50.558;7.258;2023-04-25T06:11:29;10.90;99.90
23137;DHT22;11737;50.558;7.258;2023-04-25T06:13:57;10.90;99.90
23137;DHT22;11737;50.558;7.258;2023-04-25T06:16:24;10.80;99.90
23137;DHT22;11737;50.558;7.258;2023-04-25T06:18:52;10.80;99.90
23137;DHT22;11737;50.558;7.258;2023-04-25T06:21:20;10.90;99.90
23137;DHT22;11737;50.558;7.258;2023-04-25T06:23:47;11.00;99.90
23137;DHT22;11737;50.558;7.258;2023-04-25T06:26:15;10.90;99.90
23137;DHT22;11737;50.558;7.258;2023-04-25T06:28:42;11.00;99.90
23137;DHT22;11737;50.558;7.258;2023-04-25T06:31:10;10.90;99.90
23137;DHT22;11737;50.558;7.258;2023-04-25T06:33:37;11.00;99.90
23137;DHT22;11737;50.558;7.258;2023-04-25T06:36:05;11.00;99.90
23137;DHT22;11737;50.558;7.258;2023-04-25T06:38:32;11.00;99.90
23137;DHT22;11737;50.558;7.258;2023-04-25T06:41:01;11.00;99.90
23137;DHT22;11737;50.558;7.258;2023-04-25T06:43:29;11.00;99.90
23137;DHT22;11737;50.558;7.258;2023-04-25T06:45:59;11.10;99.90
23137;DHT22;11737;50.558;7.258;2023-04-25T06:48:27;11.20;99.90
23137;DHT22;11737;50.558;7.258;2023-04-25T06:50:55;11.20;99.90
23137;DHT22;11737;50.558;7.258;2023-04-25T06:53:23;11.20;99.90
23137;DHT22;11737;50.558;7.258;2023-04-25T06:55:50;11.10;99.90
23137;DHT22;11737;50.558;7.258;2023-04-25T06:58:18;11.00;99.90
23137;DHT22;11737;50.558;7.258;2023-04-25T07:00:45;11.10;99.90
23137;DHT22;11737;50.558;7.258;2023-04-25T07:03:13;11.20;99.90
23137;DHT22;11737;50.558;7.258;2023-04-25T07:05:41;11.20;99.90
23137;DHT22;11737;50.558;7.258;2023-04-25T07:08:08;11.20;99.90
23137;DHT22;11737;50.558;7.258;2023-04-25T07:10:36;11.30;99.90
23137;DHT22;11737;50.558;7.258;2023-04-25T07:13:03;11.20;99.90
23137;DHT22;11737;50.558;7.258;2023-04-25T07:15:31;11.00;99.90
23137;DHT22;11737;50.558;7.258;2023-04-25T07:17:59;11.10;99.90
23137;DHT22;11737;50.558;7.258;2023-04-25T07:20:26;11.30;99.90
23137;DHT22;11737;50.558;7.258;2023-04-25T07:22:54;11.50;99.90
23137;DHT22;11737;50.558;7.258;2023-04-25T07:25:21;11.60;99.90
23137;DHT22;11737;50.558;7.258;2023-04-25T07:27:49;11.70;99.90
23137;DHT22;11737;50.558;7.258;2023-04-25T07:30:16;11.80;99.90
23137;DHT22;11737;50.558;7.258;2023-04-25T07:32:44;12.00;99.90
23137;DHT22;11737;50.558;7.258;2023-04-25T07:35:12;12.20;99.90
23137;DHT22;11737;50.558;7.258;2023-04-25T07:37:39;12.30;99.90
23137;DHT22;11737;50.558;7.258;2023-04-25T07:40:08;12.40;99.90
23137;DHT22;11737;50.558;7.258;2023-04-25T07:42:36;12.60;99.90
23137;DHT22;11737;50.558;7.258;2023-04-25T07:45:03;12.70;99.90
23137;DHT22;11737;50.558;7.258;2023-04-25T07:47:31;12.80;99.90
23137;DHT22;11737;50.558;7.258;2023-04-25T07:49:58;13.00;99.90
23137;DHT22;11737;50.558;7.258;2023-04-25T07:52:27;13.20;99.90
23137;DHT22;11737;50.558;7.258;2023-04-25T07:54:54;13.20;99.90
23137;DHT22;11737;50.558;7.258;2023-04-25T07:57:22;13.10;99.90
23137;DHT22;11737;50.558;7.258;2023-04-25T07:59:50;13.00;99.90
23137;DHT22;11737;50.558;7.258;2023-04-25T08:02:18;12.90;99.90
23137;DHT22;11737;50.558;7.258;2023-04-25T08:04:46;12.90;99.90
23137;DHT22;11737;50.558;7.258;2023-04-25T08:07:15;12.90;99.90
23137;DHT22;11737;50.558;7.258;2023-04-25T08:09:43;13.00;99.90
23137;DHT22;11737;50.558;7.258;2023-04-25T08:12:10;13.10;99.90
23137;DHT22;11737;50.558;7.258;2023-04-25T08:14:38;13.20;99.90
23137;DHT22;11737;50.558;7.258;2023-04-25T08:17:06;13.40;99.90
23137;DHT22;11737;50.558;7.258;2023-04-25T08:19:33;13.70;99.90
23137;DHT22;11737;50.558;7.258;2023-04-25T08:22:01;13.90;99.90
23137;DHT22;11737;50.558;7.258;2023-04-25T08:24:28;13.90;99.50
23137;DHT22;11737;50.558;7.258;2023-04-25T08:26:56;13.80;99.90
23137;DHT22;11737;50.558;7.258;2023-04-25T08:29:25;13.70;99.90
23137;DHT22;11737;50.558;7.258;2023-04-25T08:31:52;13.50;99.90
23137;DHT22;11737;50.558;7.258;2023-04-25T08:34:20;13.50;99.90
23137;DHT22;11737;50.558;7.258;2023-04-25T08:36:48;13.50;99.30
23137;DHT22;11737;50.558;7.258;2023-04-25T08:39:15;13.40;98.40
23137;DHT22;11737;50.558;7.258;2023-04-25T08:41:43;13.20;98.50
23137;DHT22;11737;50.558;7.258;2023-04-25T08:44:11;13.30;98.60
23137;DHT22;11737;50.558;7.258;2023-04-25T08:46:39;13.30;98.60
23137;DHT22;11737;50.558;7.258;2023-04-25T08:49:08;13.50;98.90
23137;DHT22;11737;50.558;7.258;2023-04-25T08:51:40;13.50;99.10
23137;DHT22;11737;50.558;7.258;2023-04-25T08:54:10;13.50;99.90
23137;DHT22;11737;50.558;7.258;2023-04-25T08:56:48;13.60;98.30
23137;DHT22;11737;50.558;7.258;2023-04-25T08:59:17;13.60;98.50
23137;DHT22;11737;50.558;7.258;2023-04-25T09:01:44;13.60;99.10
23137;DHT22;11737;50.558;7.258;2023-04-25T09:04:13;13.60;98.30
23137;DHT22;11737;50.558;7.258;2023-04-25T09:06:40;13.60;99.00
23137;DHT22;11737;50.558;7.258;2023-04-25T09:09:09;13.50;98.70
23137;DHT22;11737;50.558;7.258;2023-04-25T09:11:37;13.50;98.30
23137;DHT22;11737;50.558;7.258;2023-04-25T09:14:19;13.30;96.70
23137;DHT22;11737;50.558;7.258;2023-04-25T09:16:59;13.20;97.40
23137;DHT22;11737;50.558;7.258;2023-04-25T09:19:31;13.00;97.10
23137;DHT22;11737;50.558;7.258;2023-04-25T09:22:02;12.70;98.00
23137;DHT22;11737;50.558;7.258;2023-04-25T09:24:43;12.60;97.70
23137;DHT22;11737;50.558;7.258;2023-04-25T09:27:20;12.50;97.30
23137;DHT22;11737;50.558;7.258;2023-04-25T09:29:57;12.30;98.10
23137;DHT22;11737;50.558;7.258;2023-04-25T09:32:27;12.30;99.30
23137;DHT22;11737;50.558;7.258;2023-04-25T09:34:56;12.50;99.50
23137;DHT22;11737;50.558;7.258;2023-04-25T09:37:27;12.60;99.90
23137;DHT22;11737;50.558;7.258;2023-04-25T09:39:59;12.70;99.90
23137;DHT22;11737;50.558;7.258;2023-04-25T09:42:29;13.00;99.90
23137;DHT22;11737;50.558;7.258;2023-04-25T09:44:59;13.40;99.90
23137;DHT22;11737;50.558;7.258;2023-04-25T09:47:28;13.70;99.10
23137;DHT22;11737;50.558;7.258;2023-04-25T09:49:56;13.80;99.90
23137;DHT22;11737;50.558;7.258;2023-04-25T09:52:24;14.00;99.90
23137;DHT22;11737;50.558;7.258;2023-04-25T09:54:52;14.30;99.90
23137;DHT22;11737;50.558;7.258;2023-04-25T09:57:21;14.50;99.90
23137;DHT22;11737;50.558;7.258;2023-04-25T09:59:54;14.60;96.90
23137;DHT22;11737;50.558;7.258;2023-04-25T10:02:26;14.60;98.40
23137;DHT22;11737;50.558;7.258;2023-04-25T10:04:55;14.60;98.90
23137;DHT22;11737;50.558;7.258;2023-04-25T10:07:27;14.60;97.10
23137;DHT22;11737;50.558;7.258;2023-04-25T10:10:00;14.60;98.00
23137;DHT22;11737;50.558;7.258;2023-04-25T10:12:30;14.50;98.60
23137;DHT22;11737;50.558;7.258;2023-04-25T10:14:59;14.50;99.20
23137;DHT22;11737;50.558;7.258;2023-04-25T10:17:27;14.50;99.10
23137;DHT22;11737;50.558;7.258;2023-04-25T10:19:54;14.60;99.40
23137;DHT22;11737;50.558;7.258;2023-04-25T10:22:37;14.60;97.40
23137;DHT22;11737;50.558;7.258;2023-04-25T10:25:06;14.60;98.10
23137;DHT22;11737;50.558;7.258;2023-04-25T10:27:35;14.60;99.50
23137;DHT22;11737;50.558;7.258;2023-04-25T10:30:06;14.70;96.40
23137;DHT22;11737;50.558;7.258;2023-04-25T10:32:36;14.70;96.20
23137;DHT22;11737;50.558;7.258;2023-04-25T10:35:24;14.70;95.20
23137;DHT22;11737;50.558;7.258;2023-04-25T10:38:08;14.70;95.90
23137;DHT22;11737;50.558;7.258;2023-04-25T10:40:34;14.70;95.20
23137;DHT22;11737;50.558;7.258;2023-04-25T10:46:00;14.50;95.80
23137;DHT22;11737;50.558;7.258;2023-04-25T10:48:31;14.30;93.40
23137;DHT22;11737;50.558;7.258;2023-04-25T10:51:09;13.80;92.20
23137;DHT22;11737;50.558;7.258;2023-04-25T10:53:37;13.50;94.10
23137;DHT22;11737;50.558;7.258;2023-04-25T10:56:22;13.30;95.40
23137;DHT22;11737;50.558;7.258;2023-04-25T10:58:45;13.20;93.70
23137;DHT22;11737;50.558;7.258;2023-04-25T11:01:13;13.10;93.50
23137;DHT22;11737;50.558;7.258;2023-04-25T11:03:42;13.00;94.20
23137;DHT22;11737;50.558;7.258;2023-04-25T11:08:50;13.00;94.90
23137;DHT22;11737;50.558;7.258;2023-04-25T11:11:18;13.00;94.20
23137;DHT22;11737;50.558;7.258;2023-04-25T11:13:50;13.10;93.30
23137;DHT22;11737;50.558;7.258;2023-04-25T11:16:18;13.40;93.00
23137;DHT22;11737;50.558;7.258;2023-04-25T11:18:45;13.70;91.50
23137;DHT22;11737;50.558;7.258;2023-04-25T11:21:13;13.80;90.70
23137;DHT22;11737;50.558;7.258;2023-04-25T11:23:42;14.00;91.30
23137;DHT22;11737;50.558;7.258;2023-04-25T11:26:10;14.40;91.10
23137;DHT22;11737;50.558;7.258;2023-04-25T11:28:38;14.70;88.60
23137;DHT22;11737;50.558;7.258;2023-04-25T11:31:05;15.00;90.90
23137;DHT22;11737;50.558;7.258;2023-04-25T11:33:33;15.20;90.70
23137;DHT22;11737;50.558;7.258;2023-04-25T11:36:00;15.50;93.60
23137;DHT22;11737;50.558;7.258;2023-04-25T11:38:28;15.40;90.50
23137;DHT22;11737;50.558;7.258;2023-04-25T11:40:56;15.30;86.20
23137;DHT22;11737;50.558;7.258;2023-04-25T11:43:26;15.10;90.30
23137;DHT22;11737;50.558;7.258;2023-04-25T11:45:53;15.00;88.40
23137;DHT22;11737;50.558;7.258;2023-04-25T11:48:21;14.80;87.30
23137;DHT22;11737;50.558;7.258;2023-04-25T11:50:48;14.50;89.40
23137;DHT22;11737;50.558;7.258;2023-04-25T11:53:18;14.40;90.00
23137;DHT22;11737;50.558;7.258;2023-04-25T11:55:45;14.30;89.20
23137;DHT22;11737;50.558;7.258;2023-04-25T11:58:14;14.30;90.50
23137;DHT22;11737;50.558;7.258;2023-04-25T12:00:42;14.40;89.80
23137;DHT22;11737;50.558;7.258;2023-04-25T12:03:10;14.50;90.30
23137;DHT22;11737;50.558;7.258;2023-04-25T12:05:37;14.70;91.20
23137;DHT22;11737;50.558;7.258;2023-04-25T12:08:13;14.60;90.80
23137;DHT22;11737;50.558;7.258;2023-04-25T12:10:46;14.50;89.70
23137;DHT22;11737;50.558;7.258;2023-04-25T12:13:24;14.30;87.80
23137;DHT22;11737;50.558;7.258;2023-04-25T12:15:54;14.00;89.10
23137;DHT22;11737;50.558;7.258;2023-04-25T12:18:26;13.70;90.80
23137;DHT22;11737;50.558;7.258;2023-04-25T12:20:57;13.50;91.40
23137;DHT22;11737;50.558;7.258;2023-04-25T12:23:28;13.30;90.70
23137;DHT22;11737;50.558;7.258;2023-04-25T12:25:57;13.10;91.10
23137;DHT22;11737;50.558;7.258;2023-04-25T12:28:25;12.90;91.50
23137;DHT22;11737;50.558;7.258;2023-04-25T12:31:04;12.80;91.70
23137;DHT22;11737;50.558;7.258;2023-04-25T12:33:34;12.70;92.00
23137;DHT22;11737;50.558;7.258;2023-04-25T12:36:03;12.70;92.20
23137;DHT22;11737;50.558;7.258;2023-04-25T12:38:41;12.50;91.10
23137;DHT22;11737;50.558;7.258;2023-04-25T12:41:05;12.50;91.50
23137;DHT22;11737;50.558;7.258;2023-04-25T12:43:33;12.50;92.10
23137;DHT22;11737;50.558;7.258;2023-04-25T12:46:01;12.70;93.10
23137;DHT22;11737;50.558;7.258;2023-04-25T12:48:28;13.10;91.90
23137;DHT22;11737;50.558;7.258;2023-04-25T12:50:56;13.40;92.40
23137;DHT22;11737;50.558;7.258;2023-04-25T12:53:24;13.80;90.70
23137;DHT22;11737;50.558;7.258;2023-04-25T12:55:51;14.10;91.30
23137;DHT22;11737;50.558;7.258;2023-04-25T12:58:19;14.40;90.80
23137;DHT22;11737;50.558;7.258;2023-04-25T13:00:47;14.50;90.90
23137;DHT22;11737;50.558;7.258;2023-04-25T13:03:14;14.80;90.70
23137;DHT22;11737;50.558;7.258;2023-04-25T13:05:42;14.90;91.50
23137;DHT22;11737;50.558;7.258;2023-04-25T13:08:10;15.00;90.30
23137;DHT22;11737;50.558;7.258;2023-04-25T13:10:37;15.00;92.60
23137;DHT22;11737;50.558;7.258;2023-04-25T13:13:05;15.00;90.00
23137;DHT22;11737;50.558;7.258;2023-04-25T13:15:33;15.10;90.80
23137;DHT22;11737;50.558;7.258;2023-04-25T13:18:00;15.10;87.60
23137;DHT22;11737;50.558;7.258;2023-04-25T13:20:28;15.10;88.90
23137;DHT22;11737;50.558;7.258;2023-04-25T13:22:55;15.20;88.80
23137;DHT22;11737;50.558;7.258;2023-04-25T13:25:23;15.20;88.30
23137;DHT22;11737;50.558;7.258;2023-04-25T13:27:50;15.10;91.60
23137;DHT22;11737;50.558;7.258;2023-04-25T13:30:18;15.10;86.70
23137;DHT22;11737;50.558;7.258;2023-04-25T13:32:45;15.20;84.80
23137;DHT22;11737;50.558;7.258;2023-04-25T13:35:13;15.20;90.40
23137;DHT22;11737;50.558;7.258;2023-04-25T13:37:41;15.30;88.70
23137;DHT22;11737;50.558;7.258;2023-04-25T13:40:10;15.40;83.00
23137;DHT22;11737;50.558;7.258;2023-04-25T13:42:38;15.40;86.00
23137;DHT22;11737;50.558;7.258;2023-04-25T13:45:07;15.50;88.50
23137;DHT22;11737;50.558;7.258;2023-04-25T13:47:35;15.60;82.10
23137;DHT22;11737;50.558;7.258;2023-04-25T13:50:03;15.60;88.30
23137;DHT22;11737;50.558;7.258;2023-04-25T13:52:33;15.70;85.80
23137;DHT22;11737;50.558;7.258;2023-04-25T13:55:00;15.80;83.50
23137;DHT22;11737;50.558;7.258;2023-04-25T13:57:33;15.90;86.80
23137;DHT22;11737;50.558;7.258;2023-04-25T14:00:01;15.90;84.30
23137;DHT22;11737;50.558;7.258;2023-04-25T14:02:36;15.70;85.10
23137;DHT22;11737;50.558;7.258;2023-04-25T14:05:05;15.60;86.10
23137;DHT22;11737;50.558;7.258;2023-04-25T14:07:34;15.50;86.10
23137;DHT22;11737;50.558;7.258;2023-04-25T14:10:03;15.40;88.40
23137;DHT22;11737;50.558;7.258;2023-04-25T14:12:31;15.30;90.30
23137;DHT22;11737;50.558;7.258;2023-04-25T14:14:59;15.30;88.50
23137;DHT22;11737;50.558;7.258;2023-04-25T14:17:27;15.10;88.70
23137;DHT22;11737;50.558;7.258;2023-04-25T14:19:54;15.00;88.50
23137;DHT22;11737;50.558;7.258;2023-04-25T14:22:22;14.80;89.60
23137;DHT22;11737;50.558;7.258;2023-04-25T14:24:49;14.60;90.50
23137;DHT22;11737;50.558;7.258;2023-04-25T14:27:17;14.40;89.80
23137;DHT22;11737;50.558;7.258;2023-04-25T14:29:44;14.20;88.50
23137;DHT22;11737;50.558;7.258;2023-04-25T14:32:12;14.10;91.70
23137;DHT22;11737;50.558;7.258;2023-04-25T14:34:40;13.90;88.20
23137;DHT22;11737;50.558;7.258;2023-04-25T14:37:07;13.80;90.60
23137;DHT22;11737;50.558;7.258;2023-04-25T14:39:35;13.80;90.90
23137;DHT22;11737;50.558;7.258;2023-04-25T14:42:04;13.80;87.90
23137;DHT22;11737;50.558;7.258;2023-04-25T14:44:31;13.80;89.80
23137;DHT22;11737;50.558;7.258;2023-04-25T14:46:59;13.70;89.60
23137;DHT22;11737;50.558;7.258;2023-04-25T14:49:26;13.70;88.80
23137;DHT22;11737;50.558;7.258;2023-04-25T14:51:54;13.70;85.40
23137;DHT22;11737;50.558;7.258;2023-04-25T14:54:22;13.60;86.50
23137;DHT22;11737;50.558;7.258;2023-04-25T14:56:49;13.70;88.40
23137;DHT22;11737;50.558;7.258;2023-04-25T14:59:17;13.80;85.10
23137;DHT22;11737;50.558;7.258;2023-04-25T15:01:46;13.90;85.90
23137;DHT22;11737;50.558;7.258;2023-04-25T15:04:14;14.10;85.40
23137;DHT22;11737;50.558;7.258;2023-04-25T15:06:43;14.30;85.40
23137;DHT22;11737;50.558;7.258;2023-04-25T15:09:11;14.50;86.30
23137;DHT22;11737;50.558;7.258;2023-04-25T15:11:38;14.80;84.80
23137;DHT22;11737;50.558;7.258;2023-04-25T15:14:06;15.20;81.20
23137;DHT22;11737;50.558;7.258;2023-04-25T15:16:33;15.50;80.50
23137;DHT22;11737;50.558;7.258;2023-04-25T15:19:01;16.00;87.80
23137;DHT22;11737;50.558;7.258;2023-04-25T15:21:31;16.40;82.00
23137;DHT22;11737;50.558;7.258;2023-04-25T15:23:59;17.00;83.60
23137;DHT22;11737;50.558;7.258;2023-04-25T15:26:27;18.30;82.00
23137;DHT22;11737;50.558;7.258;2023-04-25T15:28:55;19.70;80.80
23137;DHT22;11737;50.558;7.258;2023-04-25T15:31:22;20.20;75.70
23137;DHT22;11737;50.558;7.258;2023-04-25T15:33:50;20.80;72.30
23137;DHT22;11737;50.558;7.258;2023-04-25T15:36:17;20.50;72.80
23137;DHT22;11737;50.558;7.258;2023-04-25T15:38:47;19.80;65.20
23137;DHT22;11737;50.558;7.258;2023-04-25T15:41:14;19.00;67.60
23137;DHT22;11737;50.558;7.258;2023-04-25T15:43:42;18.50;67.40
23137;DHT22;11737;50.558;7.258;2023-04-25T15:46:09;17.70;67.80
23137;DHT22;11737;50.558;7.258;2023-04-25T15:48:37;17.10;74.20
23137;DHT22;11737;50.558;7.258;2023-04-25T15:51:05;16.80;70.50
23137;DHT22;11737;50.558;7.258;2023-04-25T15:53:32;16.40;71.70
23137;DHT22;11737;50.558;7.258;2023-04-25T15:56:00;16.10;73.10
23137;DHT22;11737;50.558;7.258;2023-04-25T15:58:29;15.80;72.90
23137;DHT22;11737;50.558;7.258;2023-04-25T16:00:57;15.60;73.50
23137;DHT22;11737;50.558;7.258;2023-04-25T16:03:24;15.60;78.20
23137;DHT22;11737;50.558;7.258;2023-04-25T16:05:52;15.40;73.50
23137;DHT22;11737;50.558;7.258;2023-04-25T16:08:20;15.40;75.20
23137;DHT22;11737;50.558;7.258;2023-04-25T16:13:37;15.50;76.50
23137;DHT22;11737;50.558;7.258;2023-04-25T16:16:05;16.50;83.40
23137;DHT22;11737;50.558;7.258;2023-04-25T16:18:32;17.10;67.90
23137;DHT22;11737;50.558;7.258;2023-04-25T16:21:00;17.00;67.70
23137;DHT22;11737;50.558;7.258;2023-04-25T16:23:27;16.80;69.90
23137;DHT22;11737;50.558;7.258;2023-04-25T16:25:55;16.50;67.40
23137;DHT22;11737;50.558;7.258;2023-04-25T16:28:23;16.20;71.70
23137;DHT22;11737;50.558;7.258;2023-04-25T16:30:51;15.90;71.40
23137;DHT22;11737;50.558;7.258;2023-04-25T16:33:19;15.60;70.10
23137;DHT22;11737;50.558;7.258;2023-04-25T16:35:46;15.40;69.60
23137;DHT22;11737;50.558;7.258;2023-04-25T16:38:15;15.40;74.00
23137;DHT22;11737;50.558;7.258;2023-04-25T16:40:43;15.70;73.90
23137;DHT22;11737;50.558;7.258;2023-04-25T16:43:10;16.70;76.00
23137;DHT22;11737;50.558;7.258;2023-04-25T16:45:38;17.60;69.20